createdAt,value
2022-08-08T00:06:09.957Z,0.30
2022-08-08T00:14:15.610Z,0.30
2022-08-08T00:22:39.566Z,0.20
2022-08-08T00:30:45.202Z,0.30
2022-08-08T00:41:07.048Z,0.30
2022-08-08T00:48:02.008Z,0.30
2022-08-08T00:56:16.274Z,0.30
2022-08-08T01:04:36.441Z,0.30
2022-08-08T01:12:53.163Z,0.30
2022-08-08T01:20:56.384Z,0.20
2022-08-08T01:29:23.927Z,0.30
2022-08-08T01:37:57.486Z,0.30
2022-08-08T01:45:58.721Z,0.30
2022-08-08T01:55:15.423Z,0.30
2022-08-08T02:03:00.669Z,0.40
2022-08-08T02:11:53.072Z,0.30
2022-08-08T02:20:07.218Z,0.52
2022-08-08T02:28:10.967Z,0.30
2022-08-08T02:36:30.902Z,0.30
2022-08-08T02:44:57.907Z,0.30
2022-08-08T02:53:15.476Z,0.20
2022-08-08T03:01:47.516Z,0.40
2022-08-08T03:10:07.854Z,0.30
2022-08-08T03:18:31.701Z,0.30
2022-08-08T03:26:30.895Z,0.32
2022-08-08T03:34:24.283Z,0.40
2022-08-08T03:42:29.909Z,0.30
2022-08-08T03:50:24.590Z,0.55
2022-08-08T03:58:35.446Z,0.30
2022-08-08T04:06:30.563Z,0.30
2022-08-08T04:14:33.959Z,0.40
2022-08-08T04:22:29.687Z,0.40
2022-08-08T04:30:21.784Z,0.30
2022-08-08T04:38:21.806Z,0.40
2022-08-08T04:46:14.538Z,0.30
2022-08-08T04:54:38.520Z,0.40
2022-08-08T05:02:22.453Z,0.30
2022-08-08T05:10:20.293Z,0.30
2022-08-08T05:18:20.011Z,0.40
2022-08-08T05:26:14.121Z,0.40
2022-08-08T05:34:12.897Z,0.40
2022-08-08T05:42:07.043Z,0.30
2022-08-08T05:49:59.364Z,0.30
2022-08-08T05:58:04.867Z,0.30
2022-08-08T06:05:59.150Z,0.30
2022-08-08T06:13:51.779Z,0.30
2022-08-08T06:21:56.702Z,0.20
2022-08-08T06:30:00.923Z,0.30
2022-08-08T06:37:58.804Z,0.30
2022-08-08T06:45:50.775Z,0.20
2022-08-08T06:53:50.891Z,0.20
2022-08-08T07:02:26.358Z,0.30
2022-08-08T07:10:12.535Z,0.20
2022-08-08T07:18:35.807Z,0.20
2022-08-08T07:26:28.947Z,0.20
2022-08-08T07:34:31.442Z,0.52
2022-08-08T07:42:25.940Z,0.20
2022-08-08T07:50:26.231Z,0.10
2022-08-08T07:58:31.301Z,0.20
2022-08-08T08:06:27.204Z,0.30
2022-08-08T08:14:28.434Z,0.25
2022-08-08T08:22:25.537Z,0.10
2022-08-08T08:30:25.049Z,0.10
2022-08-08T08:38:19.059Z,0.00
2022-08-08T08:46:17.540Z,0.03
2022-08-08T08:54:12.747Z,0.00
2022-08-08T09:02:06.793Z,0.65
2022-08-08T09:09:59.782Z,0.00
2022-08-08T09:17:58.273Z,0.00
2022-08-08T09:26:02.099Z,0.00
2022-08-08T09:34:31.395Z,0.00
2022-08-08T09:42:22.150Z,0.00
2022-08-08T09:50:19.704Z,0.00
2022-08-08T09:58:25.756Z,0.00
2022-08-08T10:06:19.752Z,0.00
2022-08-08T10:14:35.425Z,0.00
2022-08-08T10:22:35.959Z,0.00
2022-08-08T10:31:00.642Z,0.00
2022-08-08T10:38:40.474Z,0.00
2022-08-08T10:46:32.405Z,0.10
2022-08-08T10:54:26.927Z,0.00
2022-08-08T11:02:32.051Z,0.00
2022-08-08T11:10:28.814Z,0.00
2022-08-08T11:18:22.794Z,0.00
2022-08-08T11:26:23.515Z,0.00
2022-08-08T11:34:23.131Z,0.00
2022-08-08T11:42:19.300Z,0.10
2022-08-08T11:50:23.475Z,0.00
2022-08-08T11:58:15.844Z,0.10
2022-08-08T12:06:15.869Z,0.00
2022-08-08T12:14:11.658Z,0.00
2022-08-08T12:22:08.949Z,0.10
2022-08-08T12:30:10.148Z,0.10
2022-08-08T12:38:09.043Z,0.00
2022-08-08T12:46:13.030Z,0.10
2022-08-08T12:54:25.137Z,0.00
2022-08-08T13:02:29.877Z,0.00
2022-08-08T13:10:32.659Z,0.00
2022-08-08T13:18:27.726Z,0.00
2022-08-08T13:26:20.278Z,0.20
2022-08-08T13:34:33.191Z,0.10
2022-08-08T13:42:29.137Z,0.00
2022-08-08T13:50:35.830Z,0.00
2022-08-08T13:58:30.474Z,0.00
2022-08-08T14:06:33.035Z,0.05
2022-08-08T14:14:40.894Z,0.03
2022-08-08T14:22:37.367Z,0.10
2022-08-08T14:30:35.102Z,0.10
2022-08-08T14:38:34.340Z,0.10
2022-08-08T14:46:44.168Z,0.10
2022-08-08T14:54:48.997Z,0.20
2022-08-08T15:03:14.167Z,0.17
2022-08-08T15:10:54.318Z,0.10
2022-08-08T15:18:51.613Z,0.10
2022-08-08T15:26:52.310Z,0.00
2022-08-08T15:34:45.096Z,0.30
2022-08-08T15:42:36.879Z,0.20
2022-08-08T15:50:52.149Z,0.10
2022-08-08T15:58:46.008Z,0.10
2022-08-08T16:06:45.158Z,0.10
2022-08-08T16:14:37.237Z,0.10
2022-08-08T16:22:30.858Z,0.10
2022-08-08T16:30:36.237Z,0.28
2022-08-08T16:38:31.705Z,0.08
2022-08-08T16:46:37.144Z,0.13
2022-08-08T16:55:04.076Z,0.10
2022-08-08T17:02:47.424Z,0.20
2022-08-08T17:10:40.218Z,0.10
2022-08-08T17:18:50.087Z,0.17
2022-08-08T17:26:43.050Z,0.10
2022-08-08T17:34:54.146Z,0.10
2022-08-08T17:42:50.651Z,0.10
2022-08-08T17:50:43.803Z,0.10
2022-08-08T17:58:36.099Z,0.10
2022-08-08T18:06:30.781Z,0.10
2022-08-08T18:14:23.972Z,0.10
2022-08-08T18:22:49.965Z,0.13
2022-08-08T18:30:29.154Z,0.10
2022-08-08T18:38:20.977Z,0.10
2022-08-08T18:46:54.394Z,0.10
2022-08-08T18:54:34.630Z,0.10
2022-08-08T19:02:29.936Z,0.10
2022-08-08T19:10:22.254Z,0.10
2022-08-08T19:18:32.523Z,0.10
2022-08-08T19:26:30.595Z,0.10
2022-08-08T19:34:30.193Z,0.20
2022-08-08T19:42:28.227Z,0.10
2022-08-08T19:50:21.423Z,0.10
2022-08-08T19:58:18.291Z,0.20
2022-08-08T20:06:14.853Z,0.20
2022-08-08T20:14:12.739Z,0.20
2022-08-08T20:22:20.942Z,0.10
2022-08-08T20:30:53.901Z,0.20
2022-08-08T20:38:36.734Z,0.20
2022-08-08T20:46:29.390Z,0.10
2022-08-08T20:54:27.425Z,0.20
2022-08-08T21:02:25.571Z,0.20
2022-08-08T21:10:20.770Z,0.25
2022-08-08T21:18:13.742Z,0.20
2022-08-08T21:26:05.655Z,0.20
2022-08-08T21:33:58.583Z,0.20
2022-08-08T21:41:53.639Z,0.28
2022-08-08T21:49:50.783Z,0.20
2022-08-08T21:58:05.908Z,0.20
2022-08-08T22:05:54.392Z,0.20
2022-08-08T22:13:51.633Z,0.20
2022-08-08T22:21:43.547Z,0.30
2022-08-08T22:29:59.552Z,0.20
2022-08-08T22:37:54.463Z,0.20
2022-08-08T22:45:52.410Z,0.20
2022-08-08T22:54:34.178Z,0.30
2022-08-08T23:02:03.466Z,0.32
2022-08-08T23:09:59.438Z,0.20
2022-08-08T23:17:54.444Z,0.20
2022-08-08T23:25:50.195Z,0.30
2022-08-08T23:34:17.326Z,0.20
2022-08-08T23:41:54.590Z,0.40
2022-08-08T23:49:49.633Z,0.20
2022-08-08T23:57:55.803Z,0.30
